Time;durP1;ratioP1;P1;durP2;ratioP2;P2;SDS_P1;SDS_P2;PMS_P1;PMS_P2;Temp;Humidity;BMP_temperature;BMP_pressure;BME280_temperature;BME280_humidity;BME280_pressure;Samples;Min_cycle;Max_cycle;Signal;HPM_P1;HPM_P2
2023/06/12 00:00:52;;;;;;;3.03;2.20;;;21.00;67.40;;;21.45;62.88;100864.41;5161516;28;20144;-67
2023/06/12 00:03:26;;;;;;;3.72;2.30;;;20.90;68.10;;;21.38;63.47;100858.28;5144848;28;20112;-67
2023/06/12 00:06:00;;;;;;;;;;;20.80;68.50;;;21.29;64.12;100853.94;5164549;28;20042;-66
2023/06/12 00:08:33;;;;;;;4.03;2.53;;;20.70;69.00;;;21.24;64.57;100861.00;5148587;28;19921;-68
2023/06/12 00:11:07;;;;;;;3.92;2.40;;;20.70;69.50;;;21.21;64.06;100861.03;5165761;28;20113;-67
2023/06/12 00:13:42;;;;;;;5.10;2.42;;;20.70;69.20;;;21.20;64.62;100863.72;5166168;28;20462;-67
2023/06/12 00:16:15;;;;;;;3.40;2.13;;;20.60;69.60;;;21.19;65.09;100860.19;5165464;28;20049;-67
2023/06/12 00:18:48;;;;;;;3.28;2.72;;;20.60;69.90;;;21.14;65.59;100862.00;5164554;28;20050;-67
2023/06/12 00:21:22;;;;;;;3.92;2.63;;;20.60;70.40;;;21.08;66.08;100864.69;5161732;28;20049;-67
2023/06/12 00:23:55;;;;;;;7.38;2.67;;;20.50;70.70;;;21.02;66.62;100856.78;5156732;28;20046;-68
2023/06/12 00:26:27;;;;;;;4.13;2.28;;;20.50;71.10;;;20.93;67.60;100863.03;5159418;28;20077;-67
2023/06/12 00:29:01;;;;;;;4.40;2.63;;;20.40;71.80;;;20.84;68.66;100868.34;5163877;28;20461;-67
2023/06/12 00:31:34;;;;;;;3.42;2.40;;;20.30;72.50;;;20.76;69.25;100870.19;5156001;28;20042;-67
2023/06/12 00:34:06;;;;;;;4.45;2.45;;;20.20;72.90;;;20.68;69.86;100864.94;5163532;28;20758;-67
2023/06/12 00:36:39;;;;;;;4.03;2.63;;;20.10;73.30;;;20.59;69.52;100865.84;5141608;28;20050;-67
2023/06/12 00:39:11;;;;;;;3.47;2.35;;;20.10;73.20;;;20.50;69.61;100867.66;5157129;28;20045;-67
2023/06/12 00:41:43;;;;;;;3.97;2.38;;;20.00;73.40;;;20.43;69.99;100865.91;5157251;28;20049;-67
2023/06/12 00:44:17;;;;;;;3.53;2.30;;;19.90;73.60;;;20.40;70.22;100865.91;5157071;28;20047;-67
2023/06/12 00:46:49;;;;;;;3.03;2.20;;;19.80;74.50;;;20.36;70.14;100861.53;5136240;28;20047;-66
2023/06/12 00:49:21;;;;;;;3.63;2.30;;;19.80;73.90;;;20.29;70.38;100861.56;5161204;28;20498;-67
2023/06/12 00:51:55;;;;;;;2.85;2.28;;;19.70;74.20;;;20.24;70.58;100852.75;5137523;28;20043;-66
2023/06/12 00:54:27;;;;;;;3.80;2.45;;;19.70;74.30;;;20.19;71.04;100859.81;5148101;28;20086;-66
2023/06/12 00:57:00;;;;;;;3.38;2.30;;;19.60;74.60;;;20.20;71.13;100856.28;5165209;28;20034;-66
2023/06/12 00:59:35;;;;;;;3.78;2.40;;;19.70;74.90;;;20.18;70.40;100859.81;5147886;28;20065;-67
2023/06/12 01:02:09;;;;;;;3.63;2.50;;;19.60;74.50;;;20.13;70.76;100858.97;5164025;28;20043;-67
2023/06/12 01:04:42;;;;;;;4.20;2.65;;;19.60;75.40;;;20.07;71.58;100854.56;5165809;28;20054;-67
2023/06/12 01:07:31;;;;;;;4.40;2.50;;;19.50;75.20;;;20.03;72.13;100859.00;5136555;28;20066;-67
2023/06/12 01:10:10;;;;;;;;;;;19.50;75.60;;;19.99;72.88;100859.00;5145770;28;20146;-66
2023/06/12 01:12:44;;;;;;;3.53;2.17;;;19.40;76.20;;;19.97;72.29;100859.00;5147511;28;20412;-67
2023/06/12 01:15:18;;;;;;;3.75;2.28;;;19.40;75.90;;;19.97;72.09;100863.44;5147597;28;20057;-67
2023/06/12 01:17:50;;;;;;;2.97;2.28;;;19.40;75.80;;;19.93;71.62;100859.88;5164200;28;20058;-67
2023/06/12 01:20:22;;;;;;;4.75;2.75;;;19.40;75.60;;;19.85;71.35;100855.50;5147053;28;20418;-67
2023/06/12 01:23:02;;;;;;;3.85;2.60;;;19.30;75.40;;;19.80;71.50;100855.50;5157604;28;20065;-67
2023/06/12 01:26:05;;;;;;;3.58;2.38;;;19.30;75.60;;;19.72;71.62;100852.88;5163931;28;20054;-68
2023/06/12 01:29:11;;;;;;;5.28;2.90;;;19.30;75.80;;;19.64;72.43;100854.69;5158575;28;20474;-67
2023/06/12 01:32:02;;;;;;;4.75;2.45;;;19.20;76.20;;;19.56;73.23;100856.41;5146764;28;20051;-67
2023/06/12 01:34:42;;;;;;;3.50;2.38;;;19.10;76.80;;;19.48;74.01;100853.75;5147426;28;20396;-66
2023/06/12 01:37:21;;;;;;;4.10;2.45;;;19.00;77.30;;;19.44;74.67;100845.84;5147037;28;20104;-66
2023/06/12 01:39:59;;;;;;;4.38;2.53;;;19.00;77.80;;;19.38;74.93;100851.13;5147285;28;20046;-67
2023/06/12 01:42:36;;;;;;;4.40;2.67;;;18.90;78.00;;;19.34;75.05;100844.06;5146995;28;20046;-68
2023/06/12 01:45:10;;;;;;;4.68;2.70;;;18.90;78.30;;;19.31;75.02;100838.81;5147186;28;20078;-67
2023/06/12 01:47:43;;;;;;;3.42;2.38;;;18.80;78.30;;;19.28;75.35;100846.72;5164678;28;20038;-67
2023/06/12 01:50:16;;;;;;;3.05;2.25;;;18.80;78.60;;;19.23;75.75;100841.41;5146432;28;20046;-67
2023/06/12 01:52:48;;;;;;;4.13;2.60;;;18.70;78.90;;;19.17;75.92;100838.78;5146837;28;20042;-68
2023/06/12 01:55:21;;;;;;;4.13;2.50;;;18.70;79.10;;;19.13;76.55;100844.97;5147047;28;20046;-66
2023/06/12 01:57:56;;;;;;;4.28;2.60;;;18.60;79.50;;;19.08;77.10;100844.94;5164226;28;20046;-67
2023/06/12 02:00:46;;;;;;;4.63;2.83;;;18.60;80.00;;;19.03;77.60;100844.06;5146613;28;20093;-68
2023/06/12 02:03:22;;;;;;;4.63;2.72;;;18.60;80.40;;;19.01;77.78;100845.81;5167614;28;20449;-67
2023/06/12 02:05:57;;;;;;;3.58;2.50;;;18.50;80.70;;;18.99;77.92;100850.22;5144183;28;20511;-67
2023/06/12 02:08:30;;;;;;;4.03;2.70;;;18.50;80.80;;;18.97;78.16;100844.97;5146788;28;20502;-67
2023/06/12 02:11:02;;;;;;;4.72;3.00;;;18.50;81.10;;;18.97;78.06;100841.41;5146393;28;20448;-66
2023/06/12 02:13:38;;;;;;;4.22;2.60;;;18.50;81.30;;;18.97;77.87;100849.34;5146501;28;20050;-68
2023/06/12 02:16:10;;;;;;;4.10;2.53;;;18.50;81.20;;;18.95;78.01;100844.06;5164036;28;20042;-67
2023/06/12 02:18:43;;;;;;;3.85;2.38;;;18.50;81.40;;;18.94;78.20;100844.94;5163955;28;20046;-67
2023/06/12 02:21:15;;;;;;;4.00;2.70;;;18.50;81.60;;;18.94;78.25;100849.34;5163491;28;20434;-68
2023/06/12 02:23:48;;;;;;;5.53;2.85;;;18.40;81.60;;;18.93;78.44;100847.59;5146395;28;20526;-66
2023/06/12 02:26:23;;;;;;;4.07;2.53;;;18.40;81.90;;;18.90;78.44;100847.56;5164420;28;20058;-67
2023/06/12 02:29:11;;;;;;;3.60;2.58;;;18.40;82.00;;;18.87;78.81;100855.50;5162806;28;20046;-67
2023/06/12 02:31:47;;;;;;;3.90;2.58;;;18.40;82.40;;;18.86;79.22;100843.19;5163952;28;20081;-67
2023/06/12 02:34:21;;;;;;;3.95;2.35;;;18.40;82.70;;;18.85;78.86;100849.34;5138949;28;20042;-68
2023/06/12 02:36:53;;;;;;;3.42;2.35;;;18.40;82.60;;;18.85;78.62;100862.53;5163336;28;20057;-68
2023/06/12 02:39:29;;;;;;;4.07;2.25;;;18.30;82.60;;;18.85;78.61;100857.25;5146039;28;20053;-67
2023/06/12 02:42:03;;;;;;;4.13;2.70;;;18.30;82.60;;;18.85;78.57;100854.63;5163352;28;20038;-68
2023/06/12 02:44:36;;;;;;;3.83;2.33;;;18.30;82.80;;;18.83;78.32;100857.22;5138097;28;20100;-67
2023/06/12 02:47:08;;;;;;;5.13;3.10;;;18.30;82.80;;;18.80;78.53;100862.53;5145633;28;20144;-67
2023/06/12 02:49:45;;;;;;;4.10;3.03;;;18.30;82.90;;;18.78;78.10;100858.09;5146005;28;20049;-66
2023/06/12 02:52:21;;;;;;;4.07;2.72;;;18.30;82.80;;;18.75;78.05;100868.66;5138319;28;20498;-67
2023/06/12 02:54:53;;;;;;;5.13;2.95;;;18.30;82.80;;;18.72;78.27;100866.03;5145491;28;20058;-67
2023/06/12 02:57:25;;;;;;;5.05;3.00;;;18.30;83.10;;;18.70;78.39;100872.16;5146076;28;20141;-67
2023/06/12 02:59:57;;;;;;;3.80;2.55;;;18.20;83.20;;;18.67;78.37;100861.63;5145374;28;20038;-67
2023/06/12 03:02:42;;;;;;;3.97;2.50;;;18.20;83.30;;;18.65;78.54;100863.34;5145786;28;20047;-67
2023/06/12 03:05:16;;;;;;;4.63;2.70;;;18.20;83.50;;;18.64;79.04;100866.84;5145945;28;20054;-67
2023/06/12 03:07:51;;;;;;;4.57;2.80;;;18.20;84.00;;;18.62;79.43;100862.44;5145428;28;20086;-66
2023/06/12 03:10:24;;;;;;;4.00;2.78;;;18.10;84.30;;;18.61;79.85;100861.56;5145318;28;20137;-67
2023/06/12 03:12:56;;;;;;;4.43;2.63;;;18.10;84.70;;;18.60;80.33;100867.72;5145406;28;20057;-67
2023/06/12 03:15:30;;;;;;;4.50;2.90;;;18.10;85.20;;;18.58;80.39;100869.47;5145944;28;20519;-67
2023/06/12 03:18:04;;;;;;;4.97;2.60;;;18.10;85.40;;;18.56;80.61;100868.56;5162345;28;20405;-67
2023/06/12 03:20:38;;;;;;;3.97;2.47;;;18.10;85.70;;;18.56;81.16;100878.25;5145725;28;20042;-67
2023/06/12 03:23:10;;;;;;;4.40;2.55;;;18.10;86.30;;;18.54;81.68;100867.69;5145607;28;20093;-68
2023/06/12 03:25:42;;;;;;;4.45;2.80;;;18.10;86.80;;;18.54;81.94;100872.97;5163333;28;20724;-67
2023/06/12 03:28:15;;;;;;;4.53;2.90;;;18.10;87.10;;;18.54;82.17;100870.34;5145103;28;20474;-67
2023/06/12 03:30:48;;;;;;;5.00;2.92;;;18.10;87.40;;;18.52;82.13;100872.09;5145314;28;20034;-67
2023/06/12 03:33:21;;;;;;;5.07;2.92;;;18.10;87.60;;;18.53;81.83;100863.31;5138389;28;20129;-67
2023/06/12 03:35:55;;;;;;;4.97;2.78;;;18.10;87.60;;;18.54;81.52;100867.69;5145490;28;20423;-67
2023/06/12 03:38:27;;;;;;;4.60;2.85;;;18.10;87.60;;;18.57;81.46;100870.34;5145537;28;20046;-67
2023/06/12 03:40:59;;;;;;;4.93;2.75;;;18.10;87.80;;;18.57;81.42;100858.91;5162103;28;20397;-67
2023/06/12 03:43:32;;;;;;;4.30;2.63;;;18.10;87.80;;;18.57;81.41;100859.78;5145680;28;20046;-68
2023/06/12 03:46:05;;;;;;;4.15;2.78;;;18.10;87.90;;;18.55;80.92;100872.09;5162841;28;20096;-68
2023/06/12 03:48:37;;;;;;;5.15;3.33;;;18.10;87.60;;;18.55;80.60;100868.56;5163140;28;20474;-67
2023/06/12 03:51:12;;;;;;;4.78;3.00;;;18.10;87.50;;;18.54;79.78;100865.06;5144670;28;20499;-67
2023/06/12 03:53:44;;;;;;;4.50;2.63;;;18.10;87.00;;;18.55;79.12;100871.22;5145447;28;20050;-66
2023/06/12 03:56:17;;;;;;;5.40;3.03;;;18.10;86.70;;;18.56;78.27;100872.97;5144947;28;20582;-70
2023/06/12 03:58:51;;;;;;;5.05;3.00;;;18.10;86.10;;;18.58;78.55;100869.47;5161803;28;20065;-67
2023/06/12 04:01:24;;;;;;;4.30;2.75;;;18.10;86.30;;;18.58;79.12;100880.03;5162392;28;20129;-67
2023/06/12 04:03:56;;;;;;;4.78;3.03;;;18.10;86.70;;;18.58;79.95;100882.69;5144692;28;20535;-67
2023/06/12 04:06:30;;;;;;;4.88;3.08;;;18.10;87.30;;;18.58;80.71;100880.03;5144950;28;20050;-67
2023/06/12 04:09:03;;;;;;;5.40;3.17;;;18.10;87.90;;;18.60;80.84;100883.56;5144777;28;20093;-67
2023/06/12 04:11:38;;;;;;;5.70;3.40;;;18.10;88.10;;;18.63;80.61;100885.31;5144952;28;20049;-67
2023/06/12 04:14:11;;;;;;;4.00;2.95;;;18.20;88.20;;;18.68;81.03;100887.13;5161739;28;20546;-67
2023/06/12 04:16:43;;;;;;;4.68;3.10;;;18.20;88.60;;;18.75;79.74;100892.44;5145069;28;20138;-66
2023/06/12 04:19:15;;;;;;;4.65;2.75;;;18.30;87.90;;;18.82;80.04;100886.28;5144468;28;20088;-67
2023/06/12 04:21:51;;;;;;;4.43;3.08;;;18.30;88.10;;;18.87;80.62;100879.25;5144393;28;20042;-67
2023/06/12 04:24:24;;;;;;;5.13;2.95;;;18.40;88.60;;;18.92;79.72;100882.81;5153871;28;20069;-67
2023/06/12 04:27:00;;;;;;;5.47;2.83;;;18.40;87.90;;;19.01;78.41;100882.81;5144386;28;20051;-68
2023/06/12 04:29:32;;;;;;;5.07;3.00;;;18.50;87.20;;;19.10;77.99;100882.81;5162591;28;20089;-67
2023/06/12 04:32:07;;;;;;;4.40;2.80;;;18.60;86.80;;;19.18;77.23;100886.38;5161831;28;20050;-67
2023/06/12 04:34:41;;;;;;;5.05;3.30;;;18.70;86.40;;;19.29;76.54;100888.13;5145098;28;20042;-67
2023/06/12 04:37:18;;;;;;;5.43;3.40;;;18.80;85.90;;;19.36;76.62;100889.88;5144130;28;20038;-68
2023/06/12 04:39:52;;;;;;;5.10;3.25;;;18.80;85.80;;;19.43;75.89;100891.63;5161939;28;20038;-66
2023/06/12 04:42:24;;;;;;;5.38;3.22;;;18.90;85.30;;;19.49;75.44;100886.34;5144609;28;20042;-67
2023/06/12 04:44:56;;;;;;;5.22;3.20;;;19.00;84.90;;;19.57;74.91;100889.91;5161939;28;20042;-67
2023/06/12 04:47:28;;;;;;;5.38;3.10;;;19.10;84.60;;;19.69;75.78;100884.66;5144638;28;20577;-67
2023/06/12 04:50:00;;;;;;;5.75;3.47;;;19.20;85.10;;;19.92;74.81;100891.66;5144079;28;20438;-67
2023/06/12 04:52:35;;;;;;;5.45;3.13;;;19.40;84.60;;;20.18;73.22;100879.22;5147000;28;20575;-67
2023/06/12 04:55:08;;;;;;;6.25;3.50;;;19.60;83.40;;;20.48;72.52;100883.56;5165496;28;20120;-68
2023/06/12 04:57:43;;;;;;;5.47;3.53;;;19.90;82.80;;;20.76;70.87;100889.59;5148117;28;20519;-66
2023/06/12 05:00:17;;;;;;;7.00;3.35;;;20.20;81.60;;;21.09;69.89;100887.63;5147634;28;20046;-67
2023/06/12 05:02:52;;;;;;;6.50;3.40;;;20.50;80.60;;;21.34;69.20;100889.25;5165515;28;20042;-67
2023/06/12 05:05:29;;;;;;;5.93;3.60;;;20.70;80.80;;;21.59;69.26;100894.34;5148034;28;20078;-67
2023/06/12 05:08:03;;;;;;;6.43;4.05;;;21.00;80.10;;;21.76;68.30;100889.75;5147628;28;20046;-67
2023/06/12 05:10:36;;;;;;;5.82;3.47;;;21.10;79.10;;;21.91;68.09;100886.09;5147697;28;20463;-67
2023/06/12 05:13:08;;;;;;;5.93;3.65;;;21.30;78.80;;;22.10;67.58;100892.09;5164900;28;20085;-67
2023/06/12 05:15:41;;;;;;;6.32;3.92;;;21.50;78.40;;;22.32;67.26;100892.75;5148400;28;20089;-68
2023/06/12 05:18:14;;;;;;;7.05;4.05;;;21.60;78.10;;;22.48;66.93;100884.56;5147502;28;20062;-67
2023/06/12 05:20:46;;;;;;;6.30;3.75;;;21.80;78.00;;;22.67;65.77;100894.94;5147914;28;20050;-68
2023/06/12 05:23:21;;;;;;;7.43;4.00;;;22.00;77.20;;;22.82;64.89;100900.06;5147607;28;20073;-68
2023/06/12 05:25:53;;;;;;;6.28;3.80;;;22.10;76.20;;;23.02;64.09;100894.50;5147524;28;20042;-69
2023/06/12 05:28:26;;;;;;;5.80;3.75;;;22.30;75.50;;;23.24;63.37;100903.03;5147852;28;20065;-68
2023/06/12 05:30:58;;;;;;;7.00;3.55;;;22.50;74.90;;;23.42;62.97;100901.84;5147174;28;20149;-68
2023/06/12 05:33:30;;;;;;;5.28;3.58;;;22.70;74.40;;;23.52;62.08;100906.09;5147793;28;20503;-68
2023/06/12 05:36:03;;;;;;;5.57;3.55;;;22.80;73.80;;;23.60;61.57;100901.53;5165110;28;20038;-67
2023/06/12 05:38:37;;;;;;;6.07;3.92;;;22.90;73.00;;;23.73;60.80;100895.13;5147039;28;20048;-68
2023/06/12 05:41:09;;;;;;;6.68;3.95;;;23.00;72.40;;;23.77;61.01;100896.84;5146922;28;20097;-67
2023/06/12 05:43:44;;;;;;;7.50;3.65;;;23.10;72.20;;;23.73;61.09;100896.91;5147555;28;20145;-68
2023/06/12 05:46:16;;;;;;;;;;;23.10;72.00;;;23.69;61.15;100900.53;5147697;28;20089;-68
2023/06/12 05:48:49;;;;;;;6.78;4.20;;;23.20;71.90;;;23.83;61.01;100899.38;5147443;28;19953;-67
2023/06/12 05:51:21;;;;;;;6.40;3.78;;;23.20;72.00;;;24.03;60.38;100901.66;5139376;28;20043;-67
2023/06/12 05:53:55;;;;;;;5.50;3.58;;;23.40;71.70;;;24.16;59.69;100906.78;5147311;28;20046;-67
2023/06/12 05:56:29;;;;;;;5.75;3.55;;;23.50;71.10;;;24.17;59.85;100904.06;5146841;28;20043;-68
2023/06/12 05:59:01;;;;;;;6.22;4.20;;;23.50;71.00;;;24.18;59.50;100904.94;5146929;28;20454;-67
2023/06/12 06:01:35;;;;;;;5.43;3.90;;;23.60;70.80;;;24.26;59.60;100903.03;5146969;28;20046;-67
2023/06/12 06:04:11;;;;;;;5.25;3.58;;;23.60;70.70;;;24.35;59.55;100908.19;5146508;28;20046;-58
2023/06/12 06:06:43;;;;;;;6.07;3.72;;;23.70;70.70;;;24.41;59.92;100913.41;5146617;28;20042;-58
2023/06/12 06:09:18;;;;;;;5.55;3.80;;;23.80;70.60;;;24.58;59.50;100910.38;5146659;28;20495;-57
2023/06/12 06:11:51;;;;;;;6.07;3.63;;;23.90;71.30;;;24.77;60.22;100905.53;5146102;28;20463;-57
2023/06/12 06:14:24;;;;;;;8.15;3.95;;;24.00;71.20;;;24.94;59.07;100918.50;5146662;28;20046;-58
2023/06/12 06:16:56;;;;;;;5.38;3.83;;;24.20;70.30;;;25.13;58.72;100914.53;5146042;28;20050;-59
2023/06/12 06:19:33;;;;;;;6.43;3.55;;;24.30;70.70;;;25.24;57.74;100916.97;5146460;28;20047;-57
2023/06/12 06:22:07;;;;;;;5.80;3.72;;;24.50;68.90;;;25.29;57.51;100917.69;5145731;28;20041;-58
2023/06/12 06:24:41;;;;;;;6.55;3.72;;;24.60;68.70;;;25.13;57.75;100915.41;5146324;28;20046;-56
2023/06/12 06:27:13;;;;;;;5.43;3.53;;;24.50;68.50;;;25.07;57.86;100917.34;5145623;28;20047;-56
2023/06/12 06:29:45;;;;;;;5.53;3.40;;;24.50;68.70;;;25.21;58.00;100919.69;5163735;28;20045;-56
2023/06/12 06:32:18;;;;;;;6.53;3.75;;;24.60;68.70;;;25.35;57.48;100915.75;5159144;28;20484;-56
2023/06/12 06:34:50;;;;;;;5.00;3.65;;;24.70;68.60;;;25.33;57.15;100922.06;5141659;28;20038;-55
2023/06/12 06:37:22;;;;;;;5.75;3.88;;;24.70;68.20;;;25.32;57.23;100920.31;5138190;28;20052;-56
2023/06/12 06:39:55;;;;;;;6.88;3.95;;;24.70;68.10;;;25.36;57.61;100924.63;5145855;28;20038;-58
2023/06/12 06:42:29;;;;;;;6.22;3.75;;;24.70;68.40;;;25.53;57.50;100933.13;5164527;28;20030;-59
2023/06/12 06:45:24;;;;;;;5.18;3.40;;;24.80;68.30;;;25.57;55.84;100929.47;5156137;28;20046;-58
2023/06/12 06:47:58;;;;;;;5.18;3.65;;;24.90;66.90;;;25.47;56.44;100925.25;5146408;28;20101;-58
2023/06/12 06:50:30;;;;;;;4.70;3.40;;;24.80;67.10;;;25.38;56.65;100930.84;5145900;28;20046;-60
2023/06/12 06:53:03;;;;;;;5.35;3.53;;;24.70;67.30;;;25.36;57.02;100927.31;5163602;28;20047;-58
2023/06/12 06:55:37;;;;;;;6.70;4.03;;;24.70;67.60;;;25.54;57.00;100928.66;5143280;28;20056;-61
2023/06/12 06:58:10;;;;;;;6.13;3.78;;;24.80;68.00;;;25.64;56.08;100930.19;5142816;28;20049;-61
2023/06/12 07:00:42;;;;;;;7.80;3.50;;;24.90;67.10;;;25.75;55.93;100929.94;5145414;28;20491;-63
2023/06/12 07:03:15;;;;;;;5.57;3.67;;;25.00;66.90;;;25.64;55.81;100920.38;5163849;28;20053;-62
2023/06/12 07:05:48;;;;;;;5.38;3.47;;;24.90;66.50;;;25.63;56.17;100926.66;5137882;28;20042;-59
2023/06/12 07:08:20;;;;;;;7.18;3.80;;;24.90;66.80;;;25.56;55.82;100927.72;5145437;28;20053;-59
2023/06/12 07:10:53;;;;;;;6.10;3.83;;;24.90;66.40;;;25.35;56.73;100920.22;5144774;28;20034;-62
2023/06/12 07:13:26;;;;;;;6.82;3.60;;;24.70;67.10;;;25.37;57.28;100929.09;5151351;28;20058;-59
2023/06/12 07:16:01;;;;;;;5.75;3.50;;;24.70;67.60;;;25.30;57.61;100927.44;5142601;28;20050;-61
2023/06/12 07:18:33;;;;;;;5.00;3.60;;;24.70;67.80;;;25.33;58.22;100922.06;5145537;28;20082;-62
2023/06/12 07:21:05;;;;;;;6.95;3.75;;;24.70;68.30;;;25.63;58.40;100936.44;5145327;28;20046;-60
2023/06/12 07:23:37;;;;;;;5.63;3.60;;;24.90;68.90;;;25.86;56.99;100920.72;5145577;28;20050;-59
2023/06/12 07:26:11;;;;;;;5.40;3.60;;;25.00;67.90;;;25.95;56.56;100920.50;5162843;28;20049;-61
2023/06/12 07:28:43;;;;;;;5.15;3.47;;;25.10;67.30;;;25.99;56.69;100923.94;5162694;28;20042;-59
2023/06/12 07:31:15;;;;;;;5.75;3.80;;;25.20;67.40;;;26.12;56.63;100930.72;5162054;28;20068;-59
2023/06/12 07:33:48;;;;;;;5.30;3.42;;;25.30;67.30;;;26.31;56.53;100925.75;5145584;28;20416;-60
2023/06/12 07:36:21;;;;;;;7.43;4.15;;;25.50;67.30;;;26.41;56.48;100926.41;5137061;28;20065;-59
2023/06/12 07:38:53;;;;;;;5.32;3.78;;;25.50;67.10;;;26.82;56.05;100916.28;5145242;28;20132;-60
2023/06/12 07:41:27;;;;;;;5.40;3.40;;;25.80;67.30;;;27.05;55.51;100911.97;5162960;28;20046;-60
2023/06/12 07:43:59;;;;;;;5.80;3.55;;;26.10;66.90;;;27.21;54.80;100915.06;5162507;28;20052;-60
2023/06/12 07:46:31;;;;;;;8.45;3.78;;;26.20;66.10;;;27.31;54.59;100916.50;5145045;28;20054;-57
2023/06/12 07:49:03;;;;;;;8.15;3.90;;;26.30;66.00;;;27.29;54.28;100922.84;5142368;28;20082;-58
2023/06/12 07:51:36;;;;;;;6.70;3.95;;;26.40;65.60;;;27.18;53.37;100911.59;5162610;28;20046;-60
2023/06/12 07:54:09;;;;;;;5.90;3.80;;;26.30;64.50;;;27.24;53.20;100920.31;5163369;28;20050;-62
2023/06/12 07:56:44;;;;;;;9.45;4.22;;;26.30;64.40;;;27.31;53.23;100916.50;5145715;28;20529;-60
2023/06/12 07:59:16;;;;;;;6.18;4.03;;;26.40;64.50;;;27.24;53.49;100914.97;5143509;28;20046;-60
2023/06/12 08:01:56;;;;;;;7.10;4.13;;;26.40;64.50;;;27.31;53.82;100916.50;5143790;28;20128;-61
2023/06/12 08:04:29;;;;;;;6.75;3.50;;;26.40;65.00;;;27.60;53.32;100914.69;5143838;28;20054;-60
2023/06/12 08:07:02;;;;;;;5.18;3.80;;;26.50;64.60;;;27.96;52.32;100911.69;5143496;28;20097;-62
2023/06/12 08:09:38;;;;;;;6.30;3.80;;;26.70;64.20;;;27.97;52.21;100911.63;5143785;28;20566;-62
2023/06/12 08:12:12;;;;;;;5.55;4.07;;;26.80;63.90;;;28.09;52.56;100916.53;5161706;28;20042;-61
2023/06/12 08:14:47;;;;;;;4.70;3.83;;;26.90;64.10;;;28.57;52.27;100896.94;5145370;28;20136;-61
2023/06/12 08:17:20;;;;;;;6.97;3.83;;;27.20;64.20;;;29.32;50.63;100902.03;5145323;28;20105;-61
2023/06/12 08:19:53;;;;;;;5.35;3.60;;;27.60;63.50;;;30.02;49.13;100908.06;5145373;28;20130;-62
2023/06/12 08:22:26;;;;;;;6.38;3.55;;;28.10;62.80;;;30.33;48.13;100903.09;5140642;28;20045;-62
2023/06/12 08:24:58;;;;;;;5.75;3.50;;;28.30;61.30;;;31.15;47.24;100897.44;5125421;28;20054;-62
2023/06/12 08:27:32;;;;;;;6.53;3.63;;;28.80;61.60;;;31.83;45.73;100907.50;5127845;28;20050;-61
2023/06/12 08:30:05;;;;;;;7.68;4.03;;;29.20;60.10;;;32.33;45.07;100900.41;5129419;28;20233;-60
2023/06/12 08:32:37;;;;;;;;;;;29.50;59.80;;;33.28;44.96;100901.38;5129740;28;20046;-61
2023/06/12 08:35:10;;;;;;;4.85;3.30;;;30.00;60.20;;;34.47;43.11;100893.31;5128822;28;20008;-60
2023/06/12 08:37:42;;;;;;;4.18;3.42;;;30.70;59.40;;;35.62;40.81;100902.91;5127372;28;20043;-61
2023/06/12 08:40:15;;;;;;;5.20;3.10;;;31.50;57.50;;;36.11;39.34;100896.81;5146788;28;20039;-61
2023/06/12 08:42:51;;;;;;;4.20;3.33;;;32.10;55.70;;;36.44;38.59;100892.69;5146431;28;20046;-60
2023/06/12 08:45:27;;;;;;;4.95;3.35;;;32.70;54.80;;;36.20;38.48;100900.75;5146455;28;20053;-60
2023/06/12 08:47:59;;;;;;;5.25;3.42;;;32.80;53.70;;;36.40;38.02;100897.50;5146560;28;20039;-61
2023/06/12 08:50:32;;;;;;;4.45;3.33;;;33.10;53.40;;;36.37;38.50;100894.94;5146181;28;20054;-60
2023/06/12 08:53:05;;;;;;;4.18;3.00;;;33.30;53.10;;;36.19;38.34;100888.13;5146161;28;20045;-60
2023/06/12 08:55:39;;;;;;;5.10;3.60;;;33.30;52.80;;;36.91;37.75;100889.28;5146191;28;20078;-61
2023/06/12 08:58:13;;;;;;;4.63;3.13;;;33.60;52.60;;;37.88;36.93;100902.72;5146412;28;20066;-61
2023/06/12 09:00:45;;;;;;;5.22;3.53;;;34.20;52.20;;;38.61;35.30;100892.44;5146144;28;20047;-61
2023/06/12 09:03:17;;;;;;;5.45;3.38;;;34.80;50.90;;;39.01;34.73;100896.34;5146131;28;20050;-61
2023/06/12 09:05:52;;;;;;;4.45;3.35;;;35.20;50.40;;;39.20;34.43;100889.41;5145976;28;20051;-61
2023/06/12 09:08:25;;;;;;;6.15;3.60;;;35.50;49.90;;;39.15;34.63;100897.97;5145917;28;20047;-61
2023/06/12 09:10:58;;;;;;;4.55;3.13;;;35.60;49.70;;;38.81;34.69;100902.59;5146039;28;20580;-61
2023/06/12 09:13:42;;;;;;;4.65;3.25;;;35.40;49.30;;;38.42;35.11;100888.47;5146032;28;20504;-60
2023/06/12 09:16:15;;;;;;;3.97;3.38;;;35.20;49.50;;;37.63;35.72;100889.28;5145904;28;20122;-61
2023/06/12 09:18:52;;;;;;;4.10;3.20;;;34.70;49.60;;;37.55;36.08;100884.41;5145710;28;20051;-60
2023/06/12 09:21:25;;;;;;;3.47;3.05;;;34.60;50.10;;;37.80;36.59;100880.69;5145755;28;20039;-60
2023/06/12 09:23:57;;;;;;;4.95;3.67;;;34.70;50.50;;;37.14;36.42;100882.09;5145749;28;20130;-61
2023/06/12 09:26:30;;;;;;;4.13;3.30;;;34.50;49.90;;;36.59;36.91;100886.19;5146006;28;20089;-60
2023/06/12 09:29:04;;;;;;;5.75;3.70;;;34.10;50.00;;;36.16;37.16;100886.50;5145302;28;20051;-61
2023/06/12 09:31:35;;;;;;;;;;;34.00;50.00;;;35.60;37.47;100883.16;5145913;28;20057;-60
2023/06/12 09:34:08;;;;;;;5.60;3.38;;;33.70;50.80;;;35.13;37.19;100876.38;5145381;28;19922;-62
2023/06/12 09:36:43;;;;;;;5.95;3.70;;;33.50;49.50;;;34.12;38.76;100890.94;5145099;28;20059;-60
2023/06/12 09:39:16;;;;;;;5.22;3.42;;;32.90;50.30;;;33.68;38.93;100883.69;5145332;28;20419;-61
2023/06/12 09:41:51;;;;;;;4.53;3.60;;;32.60;50.30;;;32.94;40.27;100881.72;5145780;28;20084;-60
2023/06/12 09:44:28;;;;;;;6.13;3.38;;;32.00;51.10;;;32.41;41.06;100882.00;5145298;28;20105;-60
2023/06/12 09:47:02;;;;;;;5.78;3.33;;;31.60;51.70;;;32.05;41.44;100874.00;5145290;28;20051;-59
2023/06/12 09:49:36;;;;;;;4.88;3.45;;;31.20;51.80;;;31.98;42.02;100878.00;5145167;28;20097;-60
2023/06/12 09:52:09;;;;;;;4.65;3.20;;;31.10;52.50;;;31.84;41.96;100881.41;5145134;28;20039;-61
2023/06/12 09:54:44;;;;;;;5.10;3.70;;;30.90;52.40;;;31.80;41.71;100875.31;5145853;28;20425;-60
2023/06/12 09:57:16;;;;;;;4.78;3.60;;;30.80;52.40;;;31.84;41.77;100874.22;5145020;28;20043;-60
2023/06/12 09:59:52;;;;;;;4.03;3.25;;;30.80;52.40;;;31.84;41.83;100876.03;5145229;28;20042;-59
2023/06/12 10:02:25;;;;;;;4.60;3.80;;;30.80;52.50;;;31.81;42.19;100876.19;5149345;28;20049;-63
2023/06/12 10:05:04;;;;;;;4.75;3.55;;;30.80;52.70;;;31.74;42.76;100880.13;5164262;28;20042;-57
2023/06/12 10:07:48;;;;;;;5.93;4.00;;;30.70;53.10;;;31.53;42.88;100876.72;5164180;28;20042;-57
2023/06/12 10:10:21;;;;;;;5.85;3.72;;;30.60;53.00;;;31.25;42.75;100872.72;5164725;28;20523;-60
2023/06/12 10:12:55;;;;;;;4.70;3.70;;;30.40;53.00;;;31.11;43.45;100874.34;5164718;28;20495;-62
2023/06/12 10:15:32;;;;;;;4.88;3.75;;;30.30;53.60;;;31.07;44.14;100874.47;5164899;28;20043;-60
2023/06/12 10:18:08;;;;;;;6.07;4.13;;;30.20;53.90;;;31.28;43.56;100871.69;5164717;28;20043;-60
2023/06/12 10:20:42;;;;;;;5.53;3.35;;;30.30;53.70;;;31.51;42.22;100868.72;5164861;28;20049;-59
2023/06/12 10:23:14;;;;;;;;;;;30.50;52.80;;;31.52;42.07;100874.97;5165107;28;20389;-60
2023/06/12 10:25:47;;;;;;;4.55;3.75;;;30.50;52.50;;;31.49;41.81;100881.38;5164679;28;19925;-60
2023/06/12 10:28:19;;;;;;;4.78;3.60;;;30.60;52.30;;;31.63;41.66;100882.50;5164560;28;20045;-56
2023/06/12 10:31:13;;;;;;;6.28;3.72;;;30.60;52.10;;;31.72;41.89;100871.25;5163888;28;20042;-60
2023/06/12 10:33:59;;;;;;;6.30;3.40;;;30.70;52.40;;;31.75;41.83;100868.38;5159649;28;20046;-59
2023/06/12 10:36:42;;;;;;;5.45;3.47;;;30.70;52.40;;;31.90;42.15;100870.31;5144604;28;20428;-62
2023/06/12 10:39:17;;;;;;;5.38;3.60;;;30.80;52.60;;;31.80;40.95;100860.97;5162959;28;20035;-63
2023/06/12 10:41:55;;;;;;;5.93;3.83;;;30.80;51.50;;;31.58;40.63;100853.97;5163386;28;20133;-62